createdAt,value
2022-08-17T00:00:34.420Z,99300.92
2022-08-17T00:03:48.994Z,99302.59
2022-08-17T00:06:54.366Z,99297.96
2022-08-17T00:09:57.949Z,99300.05
2022-08-17T00:13:06.341Z,99299.48
2022-08-17T00:16:14.845Z,99297.64
2022-08-17T00:19:23.248Z,99299.39
2022-08-17T00:22:31.451Z,99300.30
2022-08-17T00:25:43.919Z,99298.00
2022-08-17T00:28:48.020Z,99300.21
2022-08-17T00:31:50.990Z,99298.80
2022-08-17T00:34:55.139Z,99299.29
2022-08-17T00:37:59.186Z,99296.66
2022-08-17T00:41:12.760Z,99298.00
2022-08-17T00:44:16.798Z,99298.58
2022-08-17T00:47:19.782Z,99299.30
2022-08-17T00:50:22.845Z,99296.50
2022-08-17T00:53:29.253Z,99296.84
2022-08-17T00:56:40.471Z,99299.15
2022-08-17T01:00:02.297Z,99298.05
2022-08-17T01:03:12.391Z,99294.96
2022-08-17T01:06:16.087Z,99290.93
2022-08-17T01:09:20.848Z,99286.81
2022-08-17T01:12:26.254Z,99288.27
2022-08-17T01:15:31.406Z,99281.81
2022-08-17T01:18:35.600Z,99285.14
2022-08-17T01:21:55.301Z,99279.44
2022-08-17T01:25:01.470Z,99279.88
2022-08-17T01:28:05.232Z,99285.13
2022-08-17T01:31:09.536Z,99287.31
2022-08-17T01:34:15.215Z,99288.56
2022-08-17T01:37:21.931Z,99289.96
2022-08-17T01:40:41.276Z,99292.91
2022-08-17T01:43:50.732Z,99291.42
2022-08-17T01:46:53.874Z,99292.29
2022-08-17T01:49:57.463Z,99293.48
2022-08-17T01:53:05.495Z,99296.20
2022-08-17T01:56:10.055Z,99301.90
2022-08-17T01:59:13.643Z,99302.59
2022-08-17T02:02:31.132Z,99305.90
2022-08-17T02:05:35.761Z,99306.07
2022-08-17T02:09:03.296Z,99308.48
2022-08-17T02:12:38.591Z,99307.70
2022-08-17T02:15:28.981Z,99299.54
2022-08-17T02:18:31.769Z,99302.89
2022-08-17T02:21:36.845Z,99301.15
2022-08-17T02:24:59.932Z,99304.90
2022-08-17T02:28:04.714Z,99305.91
2022-08-17T02:31:11.473Z,99309.17
2022-08-17T02:34:15.265Z,99310.61
2022-08-17T02:37:18.955Z,99308.08
2022-08-17T02:40:36.206Z,99305.94
2022-08-17T02:43:39.847Z,99299.73
2022-08-17T02:46:42.810Z,99298.26
2022-08-17T02:49:55.844Z,99293.98
2022-08-17T02:53:02.369Z,99293.10
2022-08-17T02:56:06.056Z,99294.14
2022-08-17T02:59:09.236Z,99299.18
2022-08-17T03:02:12.613Z,99302.65
2022-08-17T03:05:19.264Z,99304.77
2022-08-17T03:08:23.585Z,99305.34
2022-08-17T03:11:26.648Z,99309.83
2022-08-17T03:14:29.619Z,99308.20
2022-08-17T03:17:33.119Z,99309.67
2022-08-17T03:20:37.263Z,99309.23
2022-08-17T03:23:42.538Z,99304.06
2022-08-17T03:26:45.603Z,99303.11
2022-08-17T03:29:48.881Z,99305.33
2022-08-17T03:32:55.454Z,99310.34
2022-08-17T03:35:59.330Z,99314.11
2022-08-17T03:39:02.508Z,99313.41
2022-08-17T03:42:32.201Z,99313.68
2022-08-17T03:45:55.527Z,99313.89
2022-08-17T03:49:18.657Z,99317.25
2022-08-17T03:52:40.363Z,99318.98
2022-08-17T03:56:02.261Z,99318.39
2022-08-17T03:59:05.647Z,99315.73
2022-08-17T04:02:14.868Z,99317.74
2022-08-17T04:05:18.059Z,99320.19
2022-08-17T04:08:21.321Z,99319.98
2022-08-17T04:11:24.796Z,99322.14
2022-08-17T04:14:28.386Z,99316.66
2022-08-17T04:17:31.358Z,99320.44
2022-08-17T04:20:35.048Z,99317.09
2022-08-17T04:23:38.387Z,99322.45
2022-08-17T04:26:53.196Z,99326.13
2022-08-17T04:29:58.779Z,99322.70
2022-08-17T04:33:07.415Z,99324.98
2022-08-17T04:36:13.114Z,99320.17
2022-08-17T04:39:16.213Z,99319.48
2022-08-17T04:42:19.181Z,99322.10
2022-08-17T04:45:22.193Z,99324.51
2022-08-17T04:48:29.686Z,99324.08
2022-08-17T04:51:51.016Z,99325.10
2022-08-17T04:55:04.334Z,99324.78
2022-08-17T04:58:09.230Z,99328.65
2022-08-17T05:01:13.129Z,99326.92
2022-08-17T05:04:34.913Z,99327.83
2022-08-17T05:07:38.642Z,99328.45
2022-08-17T05:10:45.344Z,99335.39
2022-08-17T05:13:50.544Z,99330.10
2022-08-17T05:16:53.688Z,99330.05
2022-08-17T05:19:56.761Z,99331.59
2022-08-17T05:23:04.786Z,99336.10
2022-08-17T05:26:08.346Z,99330.49
2022-08-17T05:29:14.788Z,99333.88
2022-08-17T05:32:39.006Z,99331.23
2022-08-17T05:35:49.622Z,99332.17
2022-08-17T05:38:52.768Z,99332.70
2022-08-17T05:41:55.739Z,99333.05
2022-08-17T05:44:59.752Z,99337.48
2022-08-17T05:48:03.542Z,99336.27
2022-08-17T05:51:30.956Z,99342.90
2022-08-17T05:54:46.377Z,99350.71
2022-08-17T05:58:00.299Z,99351.02
2022-08-17T06:01:07.437Z,99350.39
2022-08-17T06:04:17.126Z,99356.48
2022-08-17T06:07:57.907Z,99357.77
2022-08-17T06:11:07.587Z,99361.15
2022-08-17T06:14:39.008Z,99362.93
2022-08-17T06:17:43.438Z,99364.23
2022-08-17T06:20:54.982Z,99365.17
2022-08-17T06:24:07.366Z,99368.37
2022-08-17T06:27:14.552Z,99372.12
2022-08-17T06:30:26.929Z,99375.05
2022-08-17T06:33:34.505Z,99381.02
2022-08-17T06:36:53.438Z,99382.85
2022-08-17T06:40:15.958Z,99383.91
2022-08-17T06:43:48.994Z,99384.98
2022-08-17T06:46:58.533Z,99389.48
2022-08-17T06:50:31.796Z,99391.68
2022-08-17T06:53:52.177Z,99394.33
2022-08-17T06:57:10.999Z,99403.31
2022-08-17T07:00:19.434Z,99406.45
2022-08-17T07:03:28.419Z,99409.10
2022-08-17T07:06:40.948Z,99401.42
2022-08-17T07:09:44.572Z,99398.71
2022-08-17T07:12:51.309Z,99398.58
2022-08-17T07:16:03.508Z,99401.44
2022-08-17T07:19:07.944Z,99403.73
2022-08-17T07:22:30.753Z,99402.27
2022-08-17T07:25:53.700Z,99402.05
2022-08-17T07:28:57.488Z,99400.54
2022-08-17T07:32:00.563Z,99394.61
2022-08-17T07:35:11.805Z,99393.77
2022-08-17T07:38:24.820Z,99395.02
2022-08-17T07:41:53.253Z,99394.65
2022-08-17T07:44:58.195Z,99398.79
2022-08-17T07:48:19.694Z,99401.85
2022-08-17T07:51:28.190Z,99404.13
2022-08-17T07:54:36.078Z,99408.40
2022-08-17T07:57:39.863Z,99410.95
2022-08-17T08:00:42.837Z,99409.05
2022-08-17T08:03:52.647Z,99412.33
2022-08-17T08:07:01.531Z,99409.85
2022-08-17T08:10:25.319Z,99410.34
2022-08-17T08:13:29.935Z,99406.65
2022-08-17T08:16:33.007Z,99409.20
2022-08-17T08:19:35.737Z,99410.33
2022-08-17T08:23:00.876Z,99406.00
2022-08-17T08:26:34.527Z,99409.82
2022-08-17T08:29:53.149Z,99410.16
2022-08-17T08:33:08.809Z,99418.13
2022-08-17T08:37:15.934Z,99413.79
2022-08-17T08:40:27.980Z,99410.38
2022-08-17T08:44:19.713Z,99409.02
2022-08-17T08:47:26.888Z,99408.62
2022-08-17T08:50:43.155Z,99410.08
2022-08-17T08:54:01.886Z,99414.30
2022-08-17T08:57:29.391Z,99417.52
2022-08-17T09:00:40.868Z,99415.52
2022-08-17T09:04:06.593Z,99414.95
2022-08-17T09:07:41.580Z,99414.58
2022-08-17T09:11:02.868Z,99416.19
2022-08-17T09:14:21.478Z,99410.73
2022-08-17T09:17:32.965Z,99413.55
2022-08-17T09:20:54.665Z,99411.38
2022-08-17T09:24:29.422Z,99407.41
2022-08-17T09:27:57.563Z,99408.09
2022-08-17T09:31:16.099Z,99410.30
2022-08-17T09:34:44.637Z,99412.50
2022-08-17T09:37:56.257Z,99407.36
2022-08-17T09:41:15.506Z,99401.89
2022-08-17T09:44:28.911Z,99398.74
2022-08-17T09:47:45.912Z,99397.26
2022-08-17T09:51:09.921Z,99394.60
2022-08-17T09:54:42.007Z,99395.83
2022-08-17T09:57:56.226Z,99397.44
2022-08-17T10:01:18.304Z,99388.95
2022-08-17T10:04:27.425Z,99388.41
2022-08-17T10:08:00.625Z,99392.95
2022-08-17T10:11:33.598Z,99392.22
2022-08-17T10:14:44.208Z,99386.87
2022-08-17T10:18:19.109Z,99386.12
2022-08-17T10:21:44.492Z,99386.95
2022-08-17T10:25:23.948Z,99385.80
2022-08-17T10:28:52.959Z,99382.27
2022-08-17T10:32:04.432Z,99377.82
2022-08-17T10:35:46.183Z,99375.52
2022-08-17T10:39:11.155Z,99370.32
2022-08-17T10:42:47.291Z,99372.27
2022-08-17T10:46:33.719Z,99377.04
2022-08-17T10:49:39.803Z,99380.01
2022-08-17T10:52:42.787Z,99380.42
2022-08-17T10:56:14.552Z,99379.75
2022-08-17T10:59:43.865Z,99378.56
2022-08-17T11:02:56.097Z,99374.58
2022-08-17T11:06:23.289Z,99371.43
2022-08-17T11:09:51.829Z,99373.48
2022-08-17T11:13:13.941Z,99370.94
2022-08-17T11:16:39.327Z,99370.23
2022-08-17T11:20:19.952Z,99367.73
2022-08-17T11:23:48.510Z,99364.17
2022-08-17T11:27:01.720Z,99360.77
2022-08-17T11:30:36.228Z,99363.71
2022-08-17T11:34:11.820Z,99361.03
2022-08-17T11:37:28.813Z,99361.59
2022-08-17T11:40:59.415Z,99357.21
2022-08-17T11:44:27.363Z,99356.77
2022-08-17T11:48:27.777Z,99353.60
2022-08-17T11:52:01.089Z,99354.23
2022-08-17T11:55:31.734Z,99350.39
2022-08-17T11:58:29.983Z,99349.31
2022-08-17T12:01:32.847Z,99351.32
2022-08-17T12:04:36.356Z,99346.66
2022-08-17T12:07:54.751Z,99347.90
2022-08-17T12:11:10.220Z,99348.80
2022-08-17T12:14:51.382Z,99347.52
2022-08-17T12:17:56.121Z,99340.63
2022-08-17T12:21:03.641Z,99335.88
2022-08-17T12:24:25.115Z,99338.00
2022-08-17T12:27:47.705Z,99339.10
2022-08-17T12:31:04.466Z,99338.91
2022-08-17T12:34:17.545Z,99340.23
2022-08-17T12:37:25.697Z,99345.45
2022-08-17T12:40:34.361Z,99341.42
2022-08-17T12:43:37.309Z,99337.78
2022-08-17T12:47:10.785Z,99335.30
2022-08-17T12:50:29.014Z,99333.11
2022-08-17T12:53:37.497Z,99331.16
2022-08-17T12:56:40.982Z,99326.02
2022-08-17T12:59:49.400Z,99332.77
2022-08-17T13:03:15.889Z,99326.36
2022-08-17T13:06:34.211Z,99323.86
2022-08-17T13:09:40.726Z,99322.40
2022-08-17T13:12:44.247Z,99320.10
2022-08-17T13:15:59.909Z,99317.11
2022-08-17T13:19:40.078Z,99317.48
2022-08-17T13:22:54.312Z,99321.30
2022-08-17T13:26:06.337Z,99312.70
2022-08-17T13:29:20.960Z,99316.96
2022-08-17T13:32:37.822Z,99318.27
2022-08-17T13:35:50.094Z,99316.81
2022-08-17T13:39:07.198Z,99314.70
2022-08-17T13:42:29.568Z,99313.33
2022-08-17T13:45:50.625Z,99313.66
2022-08-17T13:49:02.121Z,99310.11
2022-08-17T13:52:05.298Z,99314.17
2022-08-17T13:55:22.571Z,99310.77
2022-08-17T13:58:27.721Z,99314.88
2022-08-17T14:01:53.814Z,99316.98
2022-08-17T14:04:58.774Z,99314.98
2022-08-17T14:08:07.042Z,99315.72
2022-08-17T14:11:10.412Z,99318.02
2022-08-17T14:14:15.206Z,99316.25
2022-08-17T14:17:19.249Z,99307.67
2022-08-17T14:20:23.116Z,99306.15
2022-08-17T14:23:27.541Z,99308.41
2022-08-17T14:26:30.799Z,99307.93
2022-08-17T14:29:34.802Z,99311.88
2022-08-17T14:32:41.663Z,99310.48
2022-08-17T14:35:44.631Z,99310.46
2022-08-17T14:38:48.010Z,99311.27
2022-08-17T14:41:50.992Z,99309.11
2022-08-17T14:44:55.886Z,99307.30
2022-08-17T14:47:59.076Z,99309.39
2022-08-17T14:51:02.049Z,99305.94
2022-08-17T14:54:05.636Z,99310.35
2022-08-17T14:57:25.158Z,99312.80
2022-08-17T15:01:01.218Z,99310.95
2022-08-17T15:04:04.697Z,99314.35
2022-08-17T15:07:08.384Z,99315.70
2022-08-17T15:10:13.772Z,99313.38
2022-08-17T15:13:22.752Z,99316.83
2022-08-17T15:16:27.342Z,99313.11
2022-08-17T15:19:30.328Z,99314.38
2022-08-17T15:22:33.615Z,99318.37
2022-08-17T15:25:37.433Z,99325.35
2022-08-17T15:28:40.566Z,99326.40
2022-08-17T15:31:43.833Z,99329.95
2022-08-17T15:34:46.763Z,99335.59
2022-08-17T15:37:49.697Z,99334.79
2022-08-17T15:41:20.225Z,99331.80
2022-08-17T15:44:23.470Z,99331.04
2022-08-17T15:47:37.288Z,99330.59
2022-08-17T15:50:45.588Z,99325.90
2022-08-17T15:53:52.470Z,99320.83
2022-08-17T15:56:55.937Z,99317.05
2022-08-17T15:59:59.277Z,99310.35
2022-08-17T16:03:44.837Z,99306.35
2022-08-17T16:06:29.770Z,99304.05
2022-08-17T16:09:34.045Z,99306.48
2022-08-17T16:12:47.914Z,99305.98
2022-08-17T16:15:56.817Z,99308.08
2022-08-17T16:19:00.257Z,99309.59
2022-08-17T16:22:05.272Z,99310.03
2022-08-17T16:25:16.329Z,99309.64
2022-08-17T16:28:20.100Z,99310.30
2022-08-17T16:31:23.791Z,99306.91
2022-08-17T16:34:27.091Z,99300.11
2022-08-17T16:37:31.304Z,99294.27
2022-08-17T16:40:37.586Z,99298.86
2022-08-17T16:43:40.517Z,99298.45
2022-08-17T16:46:45.846Z,99301.21
2022-08-17T16:49:50.239Z,99305.06
2022-08-17T16:53:07.693Z,99306.65
2022-08-17T16:56:10.819Z,99305.27
2022-08-17T16:59:29.999Z,99311.25
2022-08-17T17:02:37.947Z,99311.91
2022-08-17T17:05:55.235Z,99311.60
2022-08-17T17:09:05.894Z,99320.10
2022-08-17T17:13:00.830Z,99323.88
2022-08-17T17:15:59.114Z,99321.39
2022-08-17T17:19:10.439Z,99313.35
2022-08-17T17:22:27.677Z,99309.05
2022-08-17T17:25:41.054Z,99306.73
2022-08-17T17:29:14.556Z,99305.91
2022-08-17T17:32:32.670Z,99300.34
2022-08-17T17:36:01.622Z,99296.43
2022-08-17T17:39:12.507Z,99298.98
2022-08-17T17:42:21.396Z,99298.52
2022-08-17T17:45:32.762Z,99302.50
2022-08-17T17:48:35.737Z,99308.80
2022-08-17T17:52:07.777Z,99312.08
2022-08-17T17:55:40.723Z,99319.05
2022-08-17T17:59:13.785Z,99328.30
2022-08-17T18:02:52.449Z,99326.55
2022-08-17T18:06:09.728Z,99329.70
2022-08-17T18:09:28.707Z,99328.63
2022-08-17T18:13:00.944Z,99338.44
2022-08-17T18:16:10.989Z,99330.77
2022-08-17T18:19:25.688Z,99334.84
2022-08-17T18:22:31.513Z,99332.98
2022-08-17T18:25:54.512Z,99336.58
2022-08-17T18:28:57.968Z,99337.39
2022-08-17T18:32:22.328Z,99335.06
2022-08-17T18:35:30.484Z,99333.04
2022-08-17T18:38:37.941Z,99332.70
2022-08-17T18:41:47.753Z,99336.92
2022-08-17T18:44:54.955Z,99335.41
2022-08-17T18:47:58.583Z,99342.30
2022-08-17T18:51:26.361Z,99346.39
2022-08-17T18:55:14.086Z,99342.02
2022-08-17T18:58:28.218Z,99342.70
2022-08-17T19:01:53.259Z,99341.01
2022-08-17T19:05:11.059Z,99344.85
2022-08-17T19:08:29.763Z,99350.50
2022-08-17T19:11:35.737Z,99354.33
2022-08-17T19:14:39.492Z,99351.32
2022-08-17T19:17:57.506Z,99359.77
2022-08-17T19:21:18.797Z,99358.91
2022-08-17T19:24:24.909Z,99354.29
2022-08-17T19:27:50.062Z,99355.52
2022-08-17T19:30:59.851Z,99353.39
2022-08-17T19:34:03.484Z,99353.11
2022-08-17T19:37:30.674Z,99351.52
2022-08-17T19:41:00.202Z,99347.20
2022-08-17T19:44:14.878Z,99351.52
2022-08-17T19:47:55.080Z,99349.80
2022-08-17T19:51:36.152Z,99354.33
2022-08-17T19:55:00.817Z,99354.38
2022-08-17T19:58:27.334Z,99350.37
2022-08-17T20:02:11.647Z,99349.37
2022-08-17T20:05:21.854Z,99342.19
2022-08-17T20:08:29.867Z,99345.52
2022-08-17T20:11:45.734Z,99344.92
2022-08-17T20:15:00.581Z,99342.70
2022-08-17T20:18:19.411Z,99340.82
2022-08-17T20:21:57.763Z,99340.13
2022-08-17T20:25:29.946Z,99335.70
2022-08-17T20:28:39.138Z,99328.77
2022-08-17T20:31:46.334Z,99332.95
2022-08-17T20:35:09.955Z,99335.55
2022-08-17T20:38:39.436Z,99339.98
2022-08-17T20:42:04.798Z,99337.79
2022-08-17T20:45:26.548Z,99342.36
2022-08-17T20:48:39.164Z,99342.16
2022-08-17T20:52:00.667Z,99340.05
2022-08-17T20:55:05.527Z,99339.67
2022-08-17T20:58:17.700Z,99338.76
2022-08-17T21:01:39.904Z,99339.10
2022-08-17T21:04:44.556Z,99333.64
2022-08-17T21:07:56.022Z,99332.73
2022-08-17T21:11:00.937Z,99331.08
2022-08-17T21:14:25.884Z,99329.69
2022-08-17T21:17:40.009Z,99326.88
2022-08-17T21:21:00.894Z,99325.52
2022-08-17T21:24:11.739Z,99334.77
2022-08-17T21:27:52.819Z,99336.04
2022-08-17T21:30:58.620Z,99332.34
2022-08-17T21:34:38.224Z,99333.69
2022-08-17T21:37:44.787Z,99333.27
2022-08-17T21:40:53.685Z,99333.09
2022-08-17T21:44:18.871Z,99331.87
2022-08-17T21:47:29.191Z,99338.59
2022-08-17T21:50:32.590Z,99343.08
2022-08-17T21:53:43.440Z,99345.52
2022-08-17T21:56:48.546Z,99349.36
2022-08-17T21:59:56.861Z,99343.84
2022-08-17T22:03:03.018Z,99341.35
2022-08-17T22:06:28.699Z,99344.05
2022-08-17T22:09:33.199Z,99347.34
2022-08-17T22:12:36.279Z,99344.93
2022-08-17T22:15:42.544Z,99346.47
2022-08-17T22:18:48.258Z,99348.67
2022-08-17T22:22:08.317Z,99345.93
2022-08-17T22:25:21.627Z,99348.33
2022-08-17T22:28:49.184Z,99354.98
2022-08-17T22:31:57.276Z,99358.05
2022-08-17T22:35:19.363Z,99355.25
2022-08-17T22:38:22.431Z,99355.55
2022-08-17T22:41:32.500Z,99358.27
2022-08-17T22:44:45.365Z,99355.40
2022-08-17T22:47:53.863Z,99357.20
2022-08-17T22:51:15.258Z,99357.94
2022-08-17T22:54:37.873Z,99356.56
2022-08-17T22:58:06.127Z,99361.69
2022-08-17T23:01:32.506Z,99361.98
2022-08-17T23:04:39.605Z,99358.69
2022-08-17T23:07:44.618Z,99358.56
2022-08-17T23:10:48.714Z,99358.30
2022-08-17T23:13:55.116Z,99353.63
2022-08-17T23:17:01.621Z,99353.27
2022-08-17T23:20:08.631Z,99356.27
2022-08-17T23:23:14.318Z,99352.55
2022-08-17T23:26:18.696Z,99350.48
2022-08-17T23:29:23.177Z,99349.63
2022-08-17T23:32:25.997Z,99347.27
2022-08-17T23:35:39.824Z,99355.46
2022-08-17T23:38:46.978Z,99358.67
2022-08-17T23:41:53.607Z,99361.63
2022-08-17T23:44:56.616Z,99360.79
2022-08-17T23:48:00.615Z,99367.57
2022-08-17T23:51:12.521Z,99368.20
2022-08-17T23:54:28.454Z,99370.10
2022-08-17T23:57:33.637Z,99372.49
